KSEE/SEE METAR and TAF weather

Enter ICAO airport designator
Station Type Date Time Source
KSEE METAR 2019/04/22 23:47 UTC NOAA

KSEE 222347Z 27008KT 10SM SKC 20/10 A2995


Station Type Date Time Source
KSEE Decoded METAR 2019/04/22 23:47 UTC NOAA

San Diego/El Cajon, Gillespie Field Airport, CA, United States (KSEE) 32-49-34N 116-58-20W
Apr 22, 2019 - 07:47 PM EDT / 2019.04.22 2347 UTC
Wind: from the W (270 degrees) at 9 MPH (8 KT):0
Visibility: 10 mile(s):0
Sky conditions: clear
Temperature: 68 F (20 C)
Dew Point: 50 F (10 C)
Relative Humidity: 52%
Pressure (altimeter): 29.95 in. Hg (1014 hPa)
ob: KSEE 222347Z 27008KT 10SM SKC 20/10 A2995
cycle: 0

Station Type Date Time Source
KSEE TAF UTC NOAA

Error!

Example: see airport list